createdAt,value
2022-11-15T00:00:50.522Z,10.55
2022-11-15T00:03:18.913Z,10.68
2022-11-15T00:05:49.412Z,9.63
2022-11-15T00:08:17.699Z,10.52
2022-11-15T00:10:55.494Z,9.25
2022-11-15T00:13:24.875Z,9.90
2022-11-15T00:15:52.757Z,10.18
2022-11-15T00:18:21.135Z,10.27
2022-11-15T00:20:48.974Z,9.82
2022-11-15T00:23:17.464Z,9.57
2022-11-15T00:25:45.631Z,11.05
2022-11-15T00:28:13.645Z,11.10
2022-11-15T00:30:43.011Z,9.82
2022-11-15T00:33:11.242Z,11.43
2022-11-15T00:35:39.103Z,8.82
2022-11-15T00:38:07.320Z,9.48
2022-11-15T00:40:35.648Z,10.13
2022-11-15T00:43:03.553Z,10.02
2022-11-15T00:45:31.778Z,9.02
2022-11-15T00:48:03.820Z,9.77
2022-11-15T00:50:31.737Z,9.23
2022-11-15T00:52:59.743Z,9.75
2022-11-15T00:55:27.612Z,8.73
2022-11-15T00:57:55.574Z,9.40
2022-11-15T01:00:23.543Z,8.75
2022-11-15T01:02:51.584Z,8.80
2022-11-15T01:05:20.836Z,8.80
2022-11-15T01:07:48.629Z,9.88
2022-11-15T01:10:16.613Z,9.93
2022-11-15T01:12:44.506Z,9.18
2022-11-15T01:15:12.350Z,8.98
2022-11-15T01:17:40.638Z,9.35
2022-11-15T01:20:09.582Z,8.68
2022-11-15T01:22:39.009Z,8.07
2022-11-15T01:25:07.262Z,8.00
2022-11-15T01:27:35.203Z,8.35
2022-11-15T01:30:03.338Z,9.30
2022-11-15T01:32:31.293Z,7.88
2022-11-15T01:34:59.458Z,8.23
2022-11-15T01:37:27.519Z,8.50
2022-11-15T01:39:57.015Z,8.13
2022-11-15T01:42:24.813Z,8.82
2022-11-15T01:44:53.145Z,8.70
2022-11-15T01:47:22.199Z,7.78
2022-11-15T01:49:55.180Z,8.05
2022-11-15T01:54:55.427Z,7.53
2022-11-15T01:57:24.553Z,8.07
2022-11-15T01:59:53.252Z,7.78
2022-11-15T02:02:21.086Z,7.80
2022-11-15T02:04:52.024Z,8.38
2022-11-15T02:07:21.805Z,8.82
2022-11-15T02:09:51.590Z,9.02
2022-11-15T02:12:20.761Z,7.72
2022-11-15T02:14:52.779Z,8.00
2022-11-15T02:17:43.765Z,7.32
2022-11-15T02:20:30.737Z,8.60
2022-11-15T02:23:12.716Z,9.07
2022-11-15T02:25:42.926Z,10.77
2022-11-15T02:28:33.302Z,9.30
2022-11-15T02:31:06.268Z,9.85
2022-11-15T02:36:03.403Z,10.00
2022-11-15T02:38:35.532Z,10.32
2022-11-15T02:41:05.193Z,11.37
2022-11-15T02:43:55.866Z,11.05
2022-11-15T02:46:48.381Z,11.40
2022-11-15T02:49:16.835Z,11.20
2022-11-15T02:51:46.502Z,10.73
2022-11-15T02:54:16.002Z,10.25
2022-11-15T02:56:45.312Z,11.65
2022-11-15T02:59:21.762Z,11.10
2022-11-15T03:01:58.061Z,10.43
2022-11-15T03:04:30.692Z,11.52
2022-11-15T03:07:02.444Z,10.77
2022-11-15T03:09:34.496Z,10.73
2022-11-15T03:12:06.361Z,10.07
2022-11-15T03:14:36.348Z,10.77
2022-11-15T03:17:10.401Z,10.02
2022-11-15T03:19:42.544Z,10.25
2022-11-15T03:22:13.414Z,10.50
2022-11-15T03:24:41.820Z,10.57
2022-11-15T03:27:10.957Z,10.20
2022-11-15T03:29:41.510Z,10.02
2022-11-15T03:32:15.816Z,9.20
2022-11-15T03:34:46.454Z,9.02
2022-11-15T03:37:15.564Z,8.45
2022-11-15T03:39:44.867Z,9.32
2022-11-15T03:42:20.233Z,9.15
2022-11-15T03:44:53.712Z,8.60
2022-11-15T03:47:26.010Z,8.85
2022-11-15T03:49:55.718Z,7.45
2022-11-15T03:52:24.124Z,8.10
2022-11-15T03:54:53.115Z,8.48
2022-11-15T03:57:21.160Z,8.57
2022-11-15T03:59:49.039Z,9.70
2022-11-15T04:02:17.412Z,10.05
2022-11-15T04:04:47.002Z,10.23
2022-11-15T04:07:15.227Z,11.80
2022-11-15T04:10:00.333Z,10.88
2022-11-15T04:12:32.725Z,11.00
2022-11-15T04:15:11.181Z,12.60
2022-11-15T04:17:40.578Z,9.70
2022-11-15T04:20:28.552Z,10.43
2022-11-15T04:23:14.425Z,12.40
2022-11-15T04:25:42.795Z,10.65
2022-11-15T04:28:11.098Z,9.43
2022-11-15T04:30:39.009Z,11.82
2022-11-15T04:33:07.469Z,10.30
2022-11-15T04:35:36.736Z,10.13
2022-11-15T04:38:04.518Z,10.27
2022-11-15T04:40:32.601Z,10.77
2022-11-15T04:43:03.819Z,9.07
2022-11-15T04:45:32.162Z,9.80
2022-11-15T04:48:00.692Z,9.10
2022-11-15T04:50:28.945Z,9.63
2022-11-15T04:52:58.326Z,10.80
2022-11-15T04:55:26.586Z,9.82
2022-11-15T04:58:01.904Z,9.50
2022-11-15T05:00:32.948Z,10.13
2022-11-15T05:03:18.452Z,8.95
2022-11-15T05:05:46.981Z,10.50
2022-11-15T05:08:16.247Z,7.90
2022-11-15T05:10:44.501Z,8.35
2022-11-15T05:13:12.542Z,8.27
2022-11-15T05:15:40.445Z,9.65
2022-11-15T05:18:08.486Z,9.32
2022-11-15T05:20:36.505Z,10.18
2022-11-15T05:23:04.656Z,8.45
2022-11-15T05:25:34.110Z,9.07
2022-11-15T05:28:02.269Z,10.93
2022-11-15T05:30:30.241Z,12.85
2022-11-15T05:32:58.045Z,11.90
2022-11-15T05:35:29.610Z,11.13
2022-11-15T05:37:59.407Z,10.93
2022-11-15T05:40:27.856Z,12.00
2022-11-15T05:42:59.034Z,10.52
2022-11-15T05:45:30.677Z,9.88
2022-11-15T05:47:59.866Z,9.77
2022-11-15T05:50:28.066Z,11.65
2022-11-15T05:52:58.612Z,9.93
2022-11-15T05:55:30.334Z,9.70
2022-11-15T05:57:59.988Z,11.98
2022-11-15T06:00:27.926Z,11.70
2022-11-15T06:02:55.864Z,13.13
2022-11-15T06:05:23.849Z,14.98
2022-11-15T06:07:51.816Z,17.10
2022-11-15T06:10:19.890Z,16.55
2022-11-15T06:12:49.004Z,18.05
2022-11-15T06:15:18.340Z,14.50
2022-11-15T06:17:46.435Z,16.05
2022-11-15T06:20:14.345Z,15.90
2022-11-15T06:22:42.636Z,14.98
2022-11-15T06:25:10.487Z,12.00
2022-11-15T06:27:38.755Z,12.82
2022-11-15T06:30:07.422Z,12.07
2022-11-15T06:32:36.768Z,11.35
2022-11-15T06:35:04.990Z,10.25
2022-11-15T06:37:32.784Z,11.63
2022-11-15T06:40:00.636Z,11.98
2022-11-15T06:42:28.506Z,11.73
2022-11-15T06:44:56.380Z,12.52
2022-11-15T06:47:24.878Z,13.77
2022-11-15T06:49:54.323Z,15.40
2022-11-15T06:52:22.936Z,12.48
2022-11-15T06:54:50.895Z,16.77
2022-11-15T06:57:19.118Z,19.00
2022-11-15T06:59:46.975Z,20.30
2022-11-15T07:02:15.406Z,23.23
2022-11-15T07:04:43.480Z,25.15
2022-11-15T07:07:15.402Z,27.60
2022-11-15T07:09:44.501Z,28.13
2022-11-15T07:12:12.386Z,25.08
2022-11-15T07:14:40.439Z,28.02
2022-11-15T07:17:08.334Z,30.13
2022-11-15T07:19:36.243Z,31.27
2022-11-15T07:22:04.593Z,31.55
2022-11-15T07:24:33.806Z,28.20
2022-11-15T07:27:01.692Z,27.90
2022-11-15T07:29:29.800Z,20.90
2022-11-15T07:31:57.622Z,21.05
2022-11-15T07:34:25.799Z,22.13
2022-11-15T07:36:53.667Z,19.35
2022-11-15T07:39:21.654Z,21.25
2022-11-15T07:42:10.845Z,23.35
2022-11-15T07:44:39.127Z,18.30
2022-11-15T07:47:06.924Z,18.70
2022-11-15T07:49:35.081Z,16.48
2022-11-15T07:52:02.926Z,14.95
2022-11-15T07:54:30.771Z,13.25
2022-11-15T07:57:05.541Z,12.50
2022-11-15T07:59:36.096Z,13.20
2022-11-15T08:02:04.101Z,11.98
2022-11-15T08:04:32.255Z,12.80
2022-11-15T08:07:00.359Z,10.43
2022-11-15T08:09:28.351Z,11.23
2022-11-15T08:11:56.430Z,11.00
2022-11-15T08:14:25.667Z,9.63
2022-11-15T08:16:53.870Z,13.13
2022-11-15T08:19:21.870Z,13.95
2022-11-15T08:21:51.850Z,16.13
2022-11-15T08:24:20.262Z,16.00
2022-11-15T08:26:48.155Z,17.73
2022-11-15T08:29:16.105Z,18.10
2022-11-15T08:31:45.390Z,16.73
2022-11-15T08:34:13.736Z,20.27
2022-11-15T08:36:45.909Z,16.83
2022-11-15T08:39:14.834Z,14.45
2022-11-15T08:41:42.746Z,13.90
2022-11-15T08:44:10.570Z,11.75
2022-11-15T08:46:38.764Z,11.65
2022-11-15T08:49:08.294Z,11.65
2022-11-15T08:51:36.164Z,13.75
2022-11-15T08:54:04.360Z,17.08
2022-11-15T08:56:32.241Z,16.35
2022-11-15T08:59:00.073Z,16.42
2022-11-15T09:01:28.210Z,16.85
2022-11-15T09:03:56.085Z,15.52
2022-11-15T09:06:25.332Z,15.93
2022-11-15T09:08:53.779Z,14.77
2022-11-15T09:11:23.041Z,13.48
2022-11-15T09:13:51.350Z,13.10
2022-11-15T09:16:19.198Z,13.52
2022-11-15T09:18:47.255Z,14.02
2022-11-15T09:21:15.091Z,14.27
2022-11-15T09:23:44.404Z,12.88
2022-11-15T09:26:12.659Z,13.27
2022-11-15T09:28:42.769Z,15.88
2022-11-15T09:31:10.580Z,15.60
2022-11-15T09:33:38.750Z,13.18
2022-11-15T09:36:07.669Z,12.98
2022-11-15T09:38:35.981Z,13.73
2022-11-15T09:41:22.450Z,12.88
2022-11-15T09:43:55.454Z,10.50
2022-11-15T09:48:54.324Z,9.30
2022-11-15T09:51:27.394Z,8.68
2022-11-15T09:56:44.202Z,8.20
2022-11-15T09:59:22.024Z,8.40
2022-11-15T10:01:56.165Z,7.95
2022-11-15T10:04:24.805Z,9.00
2022-11-15T10:06:56.404Z,9.45
2022-11-15T10:09:27.382Z,8.70
2022-11-15T10:11:55.319Z,9.88
2022-11-15T10:14:26.464Z,9.02
2022-11-15T10:17:15.562Z,8.77
2022-11-15T10:19:49.647Z,8.50
2022-11-15T10:22:23.216Z,9.30
2022-11-15T10:24:52.894Z,9.15
2022-11-15T10:27:21.149Z,7.47
2022-11-15T10:29:51.470Z,9.10
2022-11-15T10:32:20.503Z,8.00
2022-11-15T10:34:49.054Z,7.57
2022-11-15T10:37:24.408Z,7.97
2022-11-15T10:40:04.040Z,7.18
2022-11-15T10:42:32.113Z,7.50
2022-11-15T10:45:01.653Z,7.68
2022-11-15T10:47:38.829Z,9.07
2022-11-15T10:50:09.303Z,6.07
2022-11-15T10:52:37.964Z,6.82
2022-11-15T10:55:08.641Z,6.47
2022-11-15T10:57:39.157Z,8.38
2022-11-15T11:00:09.892Z,7.97
2022-11-15T11:02:39.119Z,8.40
2022-11-15T11:05:08.456Z,8.05
2022-11-15T11:07:37.821Z,7.10
2022-11-15T11:10:28.891Z,6.78
2022-11-15T11:12:55.545Z,8.02
2022-11-15T11:15:26.297Z,6.78
2022-11-15T11:17:59.623Z,5.65
2022-11-15T11:20:29.392Z,6.80
2022-11-15T11:23:02.896Z,6.30
2022-11-15T11:25:34.915Z,6.00
2022-11-15T11:28:16.999Z,5.10
2022-11-15T11:30:50.696Z,5.50
2022-11-15T11:33:19.697Z,5.43
2022-11-15T11:35:52.105Z,5.30
2022-11-15T11:38:23.847Z,5.28
2022-11-15T11:40:57.205Z,5.15
2022-11-15T11:43:28.262Z,4.60
2022-11-15T11:46:05.661Z,5.55
2022-11-15T11:48:41.019Z,5.32
2022-11-15T11:51:12.302Z,5.57
2022-11-15T11:53:43.327Z,5.03
2022-11-15T11:56:16.412Z,5.78
2022-11-15T12:01:16.592Z,5.18
2022-11-15T12:03:47.082Z,5.18
2022-11-15T12:06:21.327Z,5.05
2022-11-15T12:08:52.564Z,4.72
2022-11-15T12:11:22.799Z,5.25
2022-11-15T12:13:52.738Z,5.07
2022-11-15T12:16:24.974Z,4.60
2022-11-15T12:18:54.733Z,5.47
2022-11-15T12:21:28.540Z,5.05
2022-11-15T12:24:01.360Z,5.05
2022-11-15T12:26:33.364Z,4.85
2022-11-15T12:29:08.530Z,4.82
2022-11-15T12:31:40.841Z,4.88
2022-11-15T12:34:16.345Z,4.95
2022-11-15T12:36:45.850Z,4.43
2022-11-15T12:39:14.095Z,4.38
2022-11-15T12:41:42.813Z,4.63
2022-11-15T12:44:13.104Z,4.45
2022-11-15T12:46:59.739Z,3.88
2022-11-15T12:49:46.729Z,3.80
2022-11-15T12:52:16.350Z,4.10
2022-11-15T12:55:01.584Z,3.53
2022-11-15T12:57:34.179Z,4.28
2022-11-15T13:00:04.226Z,4.20
2022-11-15T13:02:33.937Z,4.20
2022-11-15T13:05:20.608Z,4.45
2022-11-15T13:07:59.462Z,4.10
2022-11-15T13:10:31.718Z,4.63
2022-11-15T13:13:00.438Z,5.27
2022-11-15T13:15:36.946Z,4.35
2022-11-15T13:18:32.562Z,4.38
2022-11-15T13:21:02.970Z,4.88
2022-11-15T13:23:31.739Z,4.65
2022-11-15T13:26:06.315Z,5.15
2022-11-15T13:28:35.765Z,7.85
2022-11-15T13:31:05.990Z,6.47
2022-11-15T13:33:36.444Z,5.10
2022-11-15T13:36:06.628Z,5.47
2022-11-15T13:38:36.634Z,5.80
2022-11-15T13:41:13.365Z,5.15
2022-11-15T13:43:41.458Z,5.15
2022-11-15T13:46:12.444Z,5.60
2022-11-15T13:48:40.699Z,5.25
2022-11-15T13:51:12.224Z,5.88
2022-11-15T13:53:44.707Z,4.95
2022-11-15T13:56:12.615Z,5.70
2022-11-15T13:58:41.780Z,5.63
2022-11-15T14:01:15.837Z,7.40
2022-11-15T14:03:48.625Z,6.13
2022-11-15T14:06:17.324Z,5.43
2022-11-15T14:09:00.792Z,5.53
2022-11-15T14:11:29.182Z,5.90
2022-11-15T14:14:14.774Z,5.30
2022-11-15T14:16:43.952Z,5.68
2022-11-15T14:19:12.887Z,5.15
2022-11-15T14:21:55.887Z,5.63
2022-11-15T14:24:32.180Z,5.95
2022-11-15T14:27:15.165Z,6.45
2022-11-15T14:29:43.030Z,6.35
2022-11-15T14:32:14.913Z,6.70
2022-11-15T14:34:42.781Z,6.50
2022-11-15T14:37:18.772Z,5.93
2022-11-15T14:39:48.382Z,6.75
2022-11-15T14:42:16.277Z,7.07
2022-11-15T14:44:46.142Z,6.20
2022-11-15T14:47:14.738Z,7.13
2022-11-15T14:49:42.815Z,6.85
2022-11-15T14:52:21.337Z,6.78
2022-11-15T14:54:50.828Z,5.72
2022-11-15T14:57:18.659Z,6.15
2022-11-15T14:59:46.537Z,6.47
2022-11-15T15:02:18.128Z,6.18
2022-11-15T15:04:46.022Z,5.35
2022-11-15T15:07:13.988Z,5.10
2022-11-15T15:09:42.144Z,5.93
2022-11-15T15:12:16.950Z,5.05
2022-11-15T15:14:45.099Z,5.07
2022-11-15T15:17:13.168Z,4.57
2022-11-15T15:19:41.389Z,5.65
2022-11-15T15:22:12.399Z,5.22
2022-11-15T15:24:40.309Z,5.60
2022-11-15T15:27:08.135Z,6.25
2022-11-15T15:29:37.515Z,5.90
2022-11-15T15:32:05.593Z,5.25
2022-11-15T15:34:33.821Z,5.60
2022-11-15T15:37:11.801Z,6.63
2022-11-15T15:39:40.379Z,6.25
2022-11-15T15:42:08.213Z,5.47
2022-11-15T15:44:37.653Z,5.47
2022-11-15T15:47:10.029Z,5.60
2022-11-15T15:49:37.885Z,6.75
2022-11-15T15:52:05.742Z,6.28
2022-11-15T15:54:33.811Z,6.10
2022-11-15T15:57:01.695Z,5.80
2022-11-15T15:59:30.948Z,5.53
2022-11-15T16:02:00.175Z,5.32
2022-11-15T16:04:33.399Z,6.63
2022-11-15T16:07:01.758Z,10.95
2022-11-15T16:09:52.539Z,9.30
2022-11-15T16:12:20.361Z,19.08
2022-11-15T16:14:48.184Z,12.10
2022-11-15T16:17:19.564Z,10.98
2022-11-15T16:19:47.420Z,10.63
2022-11-15T16:22:15.445Z,8.88
2022-11-15T16:24:43.281Z,9.85
2022-11-15T16:27:14.606Z,9.52
2022-11-15T16:29:42.538Z,7.85
2022-11-15T16:32:10.627Z,8.02
2022-11-15T16:34:42.799Z,8.57
2022-11-15T16:37:20.831Z,9.57
2022-11-15T16:39:51.811Z,9.13
2022-11-15T16:42:20.452Z,7.28
2022-11-15T16:44:48.948Z,6.47
2022-11-15T16:47:18.640Z,7.40
2022-11-15T16:49:47.958Z,6.57
2022-11-15T16:52:20.257Z,5.82
2022-11-15T16:54:49.713Z,5.32
2022-11-15T16:57:17.608Z,5.57
2022-11-15T16:59:47.807Z,6.25
2022-11-15T17:02:17.244Z,6.85
2022-11-15T17:04:45.133Z,6.38
2022-11-15T17:07:14.521Z,6.65
2022-11-15T17:09:42.712Z,7.85
2022-11-15T17:12:11.693Z,6.15
2022-11-15T17:14:39.685Z,6.40
2022-11-15T17:17:07.941Z,6.47
2022-11-15T17:19:35.807Z,5.20
2022-11-15T17:22:03.817Z,5.78
2022-11-15T17:24:33.510Z,6.20
2022-11-15T17:27:01.360Z,6.38
2022-11-15T17:29:30.379Z,6.63
2022-11-15T17:31:58.436Z,5.93
2022-11-15T17:34:26.341Z,6.60
2022-11-15T17:36:54.550Z,6.35
2022-11-15T17:39:23.756Z,6.15
2022-11-15T17:41:53.244Z,5.43
2022-11-15T17:44:21.167Z,6.40
2022-11-15T17:46:49.033Z,6.38
2022-11-15T17:49:17.102Z,6.07
2022-11-15T17:51:48.831Z,6.35
2022-11-15T17:54:17.997Z,5.97
2022-11-15T17:56:45.988Z,6.80
2022-11-15T17:59:20.137Z,7.22
2022-11-15T18:01:49.544Z,7.45
2022-11-15T18:04:17.508Z,7.78
2022-11-15T18:06:45.402Z,6.78
2022-11-15T18:09:13.410Z,6.75
2022-11-15T18:11:42.047Z,7.15
2022-11-15T18:14:12.060Z,7.22
2022-11-15T18:16:41.520Z,7.10
2022-11-15T18:19:13.517Z,7.95
2022-11-15T18:21:55.824Z,9.32
2022-11-15T18:24:24.087Z,8.88
2022-11-15T18:26:52.419Z,7.20
2022-11-15T18:29:21.371Z,7.55
2022-11-15T18:31:54.902Z,7.50
2022-11-15T18:34:23.615Z,7.03
2022-11-15T18:36:52.257Z,6.75
2022-11-15T18:39:20.555Z,6.45
2022-11-15T18:41:49.310Z,7.10
2022-11-15T18:44:17.455Z,8.57
2022-11-15T18:46:45.972Z,10.30
2022-11-15T18:49:16.829Z,8.40
2022-11-15T18:51:44.921Z,7.63
2022-11-15T18:54:14.048Z,7.55
2022-11-15T18:56:44.217Z,7.68
2022-11-15T18:59:12.206Z,7.47
2022-11-15T19:01:41.974Z,5.97
2022-11-15T19:04:10.825Z,6.63
2022-11-15T19:06:41.728Z,5.53
2022-11-15T19:09:10.494Z,6.07
2022-11-15T19:11:39.619Z,6.70
2022-11-15T19:14:08.742Z,5.10
2022-11-15T19:16:37.362Z,5.20
2022-11-15T19:19:06.394Z,6.07
2022-11-15T19:21:34.711Z,7.88
2022-11-15T19:24:04.213Z,6.28
2022-11-15T19:26:32.147Z,5.93
2022-11-15T19:29:01.126Z,5.82
2022-11-15T19:31:29.950Z,5.38
2022-11-15T19:34:00.484Z,6.88
2022-11-15T19:36:29.629Z,8.43
2022-11-15T19:38:57.544Z,8.73
2022-11-15T19:41:27.003Z,7.38
2022-11-15T19:43:54.900Z,7.40
2022-11-15T19:46:23.879Z,6.13
2022-11-15T19:48:52.111Z,6.72
2022-11-15T19:51:21.571Z,5.63
2022-11-15T19:53:49.938Z,6.57
2022-11-15T19:56:18.873Z,6.93
2022-11-15T19:58:51.029Z,6.85
2022-11-15T20:01:19.656Z,6.60
2022-11-15T20:03:48.205Z,5.95
2022-11-15T20:06:17.334Z,6.22
2022-11-15T20:08:45.766Z,6.53
2022-11-15T20:11:13.810Z,9.50
2022-11-15T20:13:41.958Z,10.40
2022-11-15T20:16:15.583Z,12.10
2022-11-15T20:18:43.723Z,7.78
2022-11-15T20:21:11.740Z,6.43
2022-11-15T20:23:40.646Z,7.45
2022-11-15T20:26:08.595Z,6.80
2022-11-15T20:28:37.179Z,8.00
2022-11-15T20:31:05.711Z,14.02
2022-11-15T20:33:35.785Z,14.95
2022-11-15T20:36:04.898Z,14.95
2022-11-15T20:38:33.171Z,12.30
2022-11-15T20:41:01.204Z,10.88
2022-11-15T20:43:29.152Z,9.88
2022-11-15T20:45:57.217Z,10.73
2022-11-15T20:48:25.247Z,8.98
2022-11-15T20:51:03.910Z,8.15
2022-11-15T20:53:32.296Z,8.18
2022-11-15T20:56:04.649Z,7.03
2022-11-15T20:58:32.807Z,7.90
2022-11-15T21:01:01.115Z,7.28
2022-11-15T21:03:29.237Z,6.75
2022-11-15T21:05:58.500Z,6.93
2022-11-15T21:08:26.352Z,6.07
2022-11-15T21:11:12.666Z,6.72
2022-11-15T21:13:40.866Z,6.65
2022-11-15T21:16:09.153Z,7.45
2022-11-15T21:18:37.009Z,6.85
2022-11-15T21:21:06.888Z,7.25
2022-11-15T21:23:34.767Z,6.40
2022-11-15T21:26:02.647Z,10.80
2022-11-15T21:28:30.853Z,12.27
2022-11-15T21:31:00.213Z,12.27
2022-11-15T21:33:28.499Z,11.93
2022-11-15T21:35:56.364Z,9.23
2022-11-15T21:38:25.840Z,9.73
2022-11-15T21:40:54.306Z,8.60
2022-11-15T21:43:22.327Z,8.30
2022-11-15T21:45:56.755Z,7.95
2022-11-15T21:48:24.796Z,7.15
2022-11-15T21:50:56.127Z,7.38
2022-11-15T21:53:25.477Z,6.68
2022-11-15T21:55:53.654Z,6.72
2022-11-15T21:58:21.821Z,7.03
2022-11-15T22:01:07.508Z,6.47
2022-11-15T22:03:35.874Z,6.28
2022-11-15T22:06:03.941Z,6.43
2022-11-15T22:08:33.456Z,6.13
2022-11-15T22:11:01.760Z,7.38
2022-11-15T22:13:29.836Z,8.13
2022-11-15T22:15:57.839Z,6.50
2022-11-15T22:18:26.777Z,6.97
2022-11-15T22:20:55.397Z,7.22
2022-11-15T22:23:23.348Z,7.25
2022-11-15T22:25:52.979Z,6.97
2022-11-15T22:28:21.595Z,6.97
2022-11-15T22:30:50.051Z,5.72
2022-11-15T22:33:19.003Z,6.80
2022-11-15T22:35:47.266Z,6.55
2022-11-15T22:38:15.233Z,5.38
2022-11-15T22:40:43.253Z,6.32
2022-11-15T22:43:12.925Z,5.38
2022-11-15T22:45:48.087Z,6.05
2022-11-15T22:48:15.999Z,5.50
2022-11-15T22:50:43.904Z,5.60
2022-11-15T22:53:12.255Z,6.15
2022-11-15T22:55:40.258Z,5.97
2022-11-15T22:58:08.915Z,6.47
2022-11-15T23:00:38.248Z,6.38
2022-11-15T23:03:06.457Z,7.00
2022-11-15T23:05:34.622Z,6.90
2022-11-15T23:08:02.492Z,6.88
2022-11-15T23:10:47.963Z,6.90
2022-11-15T23:13:18.426Z,6.18
2022-11-15T23:16:06.153Z,5.78
2022-11-15T23:18:35.174Z,5.82
2022-11-15T23:21:08.996Z,6.13
2022-11-15T23:23:36.046Z,5.00
2022-11-15T23:26:04.043Z,6.15
2022-11-15T23:28:32.953Z,5.47
2022-11-15T23:31:23.641Z,5.93
2022-11-15T23:34:00.352Z,6.72
2022-11-15T23:36:29.081Z,5.78
2022-11-15T23:38:57.118Z,5.65
2022-11-15T23:41:25.637Z,5.95
2022-11-15T23:43:53.762Z,5.43
2022-11-15T23:46:22.993Z,5.22
2022-11-15T23:48:50.887Z,4.57
2022-11-15T23:51:18.734Z,5.38
2022-11-15T23:53:46.633Z,5.05
2022-11-15T23:56:15.525Z,5.60
2022-11-15T23:58:44.083Z,5.10
